sensor_id;sensor_type;location;lat;lon;timestamp;P1;durP1;ratioP1;P2;durP2;ratioP2
8423;SDS011;4249;49.072;9.770;2022-09-09T00:02:27;1.73;;;1.40;;
8423;SDS011;4249;49.072;9.770;2022-09-09T00:05:17;4.60;;;1.90;;
8423;SDS011;4249;49.072;9.770;2022-09-09T00:08:14;3.57;;;1.90;;
8423;SDS011;4249;49.072;9.770;2022-09-09T00:11:05;3.33;;;1.70;;
8423;SDS011;4249;49.072;9.770;2022-09-09T00:13:57;4.77;;;1.80;;
8423;SDS011;4249;49.072;9.770;2022-09-09T00:16:50;2.90;;;2.03;;
8423;SDS011;4249;49.072;9.770;2022-09-09T00:19:44;2.23;;;1.60;;
8423;SDS011;4249;49.072;9.770;2022-09-09T00:22:36;2.30;;;1.73;;
8423;SDS011;4249;49.072;9.770;2022-09-09T00:25:27;2.87;;;1.30;;
8423;SDS011;4249;49.072;9.770;2022-09-09T00:28:20;2.03;;;1.50;;
8423;SDS011;4249;49.072;9.770;2022-09-09T00:31:12;3.90;;;1.47;;
8423;SDS011;4249;49.072;9.770;2022-09-09T00:34:05;1.80;;;1.37;;
8423;SDS011;4249;49.072;9.770;2022-09-09T00:37:00;1.90;;;1.47;;
8423;SDS011;4249;49.072;9.770;2022-09-09T00:39:49;2.13;;;1.37;;
8423;SDS011;4249;49.072;9.770;2022-09-09T00:42:42;2.77;;;1.60;;
8423;SDS011;4249;49.072;9.770;2022-09-09T00:45:37;3.43;;;1.50;;
8423;SDS011;4249;49.072;9.770;2022-09-09T00:48:41;5.70;;;1.60;;
8423;SDS011;4249;49.072;9.770;2022-09-09T00:51:40;2.83;;;1.48;;
8423;SDS011;4249;49.072;9.770;2022-09-09T00:54:40;2.13;;;1.50;;
8423;SDS011;4249;49.072;9.770;2022-09-09T00:57:34;3.55;;;1.38;;
8423;SDS011;4249;49.072;9.770;2022-09-09T01:00:23;1.80;;;1.40;;
8423;SDS011;4249;49.072;9.770;2022-09-09T01:03:22;3.37;;;1.43;;
8423;SDS011;4249;49.072;9.770;2022-09-09T01:06:19;4.33;;;1.50;;
8423;SDS011;4249;49.072;9.770;2022-09-09T01:09:12;2.50;;;1.30;;
8423;SDS011;4249;49.072;9.770;2022-09-09T01:12:07;2.23;;;1.27;;
8423;SDS011;4249;49.072;9.770;2022-09-09T01:15:07;1.73;;;1.13;;
8423;SDS011;4249;49.072;9.770;2022-09-09T01:17:58;2.10;;;1.20;;
8423;SDS011;4249;49.072;9.770;2022-09-09T01:20:53;3.43;;;1.80;;
8423;SDS011;4249;49.072;9.770;2022-09-09T01:23:51;1.67;;;1.20;;
8423;SDS011;4249;49.072;9.770;2022-09-09T01:26:53;3.47;;;1.52;;
8423;SDS011;4249;49.072;9.770;2022-09-09T01:29:44;2.80;;;1.70;;
8423;SDS011;4249;49.072;9.770;2022-09-09T01:32:40;2.50;;;1.57;;
8423;SDS011;4249;49.072;9.770;2022-09-09T01:35:31;2.10;;;1.30;;
8423;SDS011;4249;49.072;9.770;2022-09-09T01:38:24;2.45;;;1.38;;
8423;SDS011;4249;49.072;9.770;2022-09-09T01:41:11;3.00;;;1.40;;
8423;SDS011;4249;49.072;9.770;2022-09-09T01:44:00;2.33;;;1.30;;
8423;SDS011;4249;49.072;9.770;2022-09-09T01:46:48;4.88;;;1.88;;
8423;SDS011;4249;49.072;9.770;2022-09-09T01:49:35;2.88;;;1.95;;
8423;SDS011;4249;49.072;9.770;2022-09-09T01:52:22;5.50;;;2.60;;
8423;SDS011;4249;49.072;9.770;2022-09-09T01:55:10;2.88;;;2.17;;
8423;SDS011;4249;49.072;9.770;2022-09-09T01:58:01;3.63;;;1.70;;
8423;SDS011;4249;49.072;9.770;2022-09-09T02:01:02;2.23;;;2.00;;
8423;SDS011;4249;49.072;9.770;2022-09-09T02:03:57;4.00;;;2.00;;
8423;SDS011;4249;49.072;9.770;2022-09-09T02:06:45;2.50;;;1.20;;
8423;SDS011;4249;49.072;9.770;2022-09-09T02:09:34;4.45;;;1.40;;
8423;SDS011;4249;49.072;9.770;2022-09-09T02:12:22;1.73;;;1.30;;
8423;SDS011;4249;49.072;9.770;2022-09-09T02:15:16;3.33;;;1.70;;
8423;SDS011;4249;49.072;9.770;2022-09-09T02:18:08;4.32;;;1.83;;
8423;SDS011;4249;49.072;9.770;2022-09-09T02:20:58;2.03;;;1.53;;
8423;SDS011;4249;49.072;9.770;2022-09-09T02:23:46;2.43;;;1.60;;
8423;SDS011;4249;49.072;9.770;2022-09-09T02:26:38;3.17;;;1.60;;
8423;SDS011;4249;49.072;9.770;2022-09-09T02:29:28;2.70;;;1.45;;
8423;SDS011;4249;49.072;9.770;2022-09-09T02:32:19;3.03;;;1.93;;
8423;SDS011;4249;49.072;9.770;2022-09-09T02:35:11;3.35;;;1.60;;
8423;SDS011;4249;49.072;9.770;2022-09-09T02:38:01;3.53;;;1.85;;
8423;SDS011;4249;49.072;9.770;2022-09-09T02:40:51;2.20;;;1.83;;
8423;SDS011;4249;49.072;9.770;2022-09-09T02:43:38;3.07;;;1.63;;
8423;SDS011;4249;49.072;9.770;2022-09-09T02:46:32;3.85;;;1.80;;
8423;SDS011;4249;49.072;9.770;2022-09-09T02:49:33;4.17;;;1.80;;
8423;SDS011;4249;49.072;9.770;2022-09-09T02:52:30;4.40;;;1.60;;
8423;SDS011;4249;49.072;9.770;2022-09-09T02:55:23;2.15;;;1.70;;
8423;SDS011;4249;49.072;9.770;2022-09-09T02:58:18;2.87;;;1.60;;
8423;SDS011;4249;49.072;9.770;2022-09-09T03:01:05;3.13;;;1.60;;
8423;SDS011;4249;49.072;9.770;2022-09-09T03:03:54;2.67;;;1.40;;
8423;SDS011;4249;49.072;9.770;2022-09-09T03:06:41;2.60;;;1.60;;
8423;SDS011;4249;49.072;9.770;2022-09-09T03:09:29;1.90;;;1.50;;
8423;SDS011;4249;49.072;9.770;2022-09-09T03:12:17;2.43;;;1.37;;
8423;SDS011;4249;49.072;9.770;2022-09-09T03:15:05;2.67;;;1.80;;
8423;SDS011;4249;49.072;9.770;2022-09-09T03:17:53;3.50;;;1.50;;
8423;SDS011;4249;49.072;9.770;2022-09-09T03:20:42;2.30;;;1.07;;
8423;SDS011;4249;49.072;9.770;2022-09-09T03:23:29;3.17;;;1.60;;
8423;SDS011;4249;49.072;9.770;2022-09-09T03:26:17;3.00;;;1.60;;
8423;SDS011;4249;49.072;9.770;2022-09-09T03:29:05;2.40;;;1.30;;
8423;SDS011;4249;49.072;9.770;2022-09-09T03:31:52;2.37;;;1.23;;
8423;SDS011;4249;49.072;9.770;2022-09-09T03:34:39;2.73;;;1.60;;
8423;SDS011;4249;49.072;9.770;2022-09-09T03:37:27;4.33;;;1.67;;
8423;SDS011;4249;49.072;9.770;2022-09-09T03:40:14;1.73;;;1.30;;
8423;SDS011;4249;49.072;9.770;2022-09-09T03:43:03;3.80;;;1.73;;
8423;SDS011;4249;49.072;9.770;2022-09-09T03:45:50;4.50;;;1.90;;
8423;SDS011;4249;49.072;9.770;2022-09-09T03:48:37;2.97;;;1.57;;
8423;SDS011;4249;49.072;9.770;2022-09-09T03:51:24;3.13;;;1.67;;
8423;SDS011;4249;49.072;9.770;2022-09-09T03:54:12;2.73;;;1.47;;
8423;SDS011;4249;49.072;9.770;2022-09-09T03:56:59;4.30;;;1.50;;
8423;SDS011;4249;49.072;9.770;2022-09-09T03:59:47;1.87;;;1.70;;
8423;SDS011;4249;49.072;9.770;2022-09-09T04:02:34;4.03;;;1.53;;
8423;SDS011;4249;49.072;9.770;2022-09-09T04:05:22;3.37;;;1.77;;
8423;SDS011;4249;49.072;9.770;2022-09-09T04:08:09;5.93;;;1.70;;
8423;SDS011;4249;49.072;9.770;2022-09-09T04:10:56;4.03;;;1.70;;
8423;SDS011;4249;49.072;9.770;2022-09-09T04:13:44;2.10;;;1.60;;
8423;SDS011;4249;49.072;9.770;2022-09-09T04:16:32;3.10;;;1.80;;
8423;SDS011;4249;49.072;9.770;2022-09-09T04:19:22;2.45;;;1.70;;
8423;SDS011;4249;49.072;9.770;2022-09-09T04:22:09;2.67;;;1.57;;
8423;SDS011;4249;49.072;9.770;2022-09-09T04:24:56;3.37;;;1.70;;
8423;SDS011;4249;49.072;9.770;2022-09-09T04:27:43;5.67;;;1.90;;
8423;SDS011;4249;49.072;9.770;2022-09-09T04:30:30;3.20;;;1.60;;
8423;SDS011;4249;49.072;9.770;2022-09-09T04:33:19;4.63;;;1.90;;
8423;SDS011;4249;49.072;9.770;2022-09-09T04:36:07;1.97;;;1.33;;
8423;SDS011;4249;49.072;9.770;2022-09-09T04:38:54;1.67;;;1.50;;
8423;SDS011;4249;49.072;9.770;2022-09-09T04:41:41;2.77;;;1.30;;
8423;SDS011;4249;49.072;9.770;2022-09-09T04:44:28;1.43;;;1.20;;
8423;SDS011;4249;49.072;9.770;2022-09-09T04:47:16;1.77;;;1.50;;
8423;SDS011;4249;49.072;9.770;2022-09-09T04:50:05;2.13;;;1.50;;
8423;SDS011;4249;49.072;9.770;2022-09-09T04:52:52;2.97;;;1.43;;
8423;SDS011;4249;49.072;9.770;2022-09-09T04:55:40;3.80;;;1.60;;
8423;SDS011;4249;49.072;9.770;2022-09-09T04:58:27;3.27;;;1.83;;
8423;SDS011;4249;49.072;9.770;2022-09-09T05:01:15;4.60;;;1.50;;
8423;SDS011;4249;49.072;9.770;2022-09-09T05:04:03;1.93;;;1.40;;
8423;SDS011;4249;49.072;9.770;2022-09-09T05:06:52;4.10;;;1.40;;
8423;SDS011;4249;49.072;9.770;2022-09-09T05:09:39;2.80;;;1.60;;
8423;SDS011;4249;49.072;9.770;2022-09-09T05:12:26;3.83;;;1.40;;
8423;SDS011;4249;49.072;9.770;2022-09-09T05:15:14;2.50;;;1.40;;
8423;SDS011;4249;49.072;9.770;2022-09-09T05:18:01;2.43;;;1.47;;
8423;SDS011;4249;49.072;9.770;2022-09-09T05:20:49;3.57;;;1.60;;
8423;SDS011;4249;49.072;9.770;2022-09-09T05:23:38;3.33;;;1.50;;
8423;SDS011;4249;49.072;9.770;2022-09-09T05:26:25;2.27;;;1.47;;
8423;SDS011;4249;49.072;9.770;2022-09-09T05:29:14;3.33;;;1.40;;
8423;SDS011;4249;49.072;9.770;2022-09-09T05:32:04;2.13;;;1.60;;
8423;SDS011;4249;49.072;9.770;2022-09-09T05:34:51;2.73;;;1.50;;
8423;SDS011;4249;49.072;9.770;2022-09-09T05:37:39;3.20;;;1.45;;
8423;SDS011;4249;49.072;9.770;2022-09-09T05:40:27;3.08;;;1.42;;
8423;SDS011;4249;49.072;9.770;2022-09-09T05:43:15;2.23;;;1.30;;
8423;SDS011;4249;49.072;9.770;2022-09-09T05:46:03;1.83;;;1.40;;
8423;SDS011;4249;49.072;9.770;2022-09-09T05:48:51;1.93;;;1.23;;
8423;SDS011;4249;49.072;9.770;2022-09-09T05:51:39;4.75;;;1.40;;
8423;SDS011;4249;49.072;9.770;2022-09-09T05:54:28;2.88;;;1.58;;
8423;SDS011;4249;49.072;9.770;2022-09-09T05:57:16;3.22;;;1.35;;
8423;SDS011;4249;49.072;9.770;2022-09-09T06:00:05;1.60;;;1.33;;
8423;SDS011;4249;49.072;9.770;2022-09-09T06:02:53;2.20;;;1.40;;
8423;SDS011;4249;49.072;9.770;2022-09-09T06:05:40;3.70;;;1.50;;
8423;SDS011;4249;49.072;9.770;2022-09-09T06:08:27;1.52;;;1.15;;
8423;SDS011;4249;49.072;9.770;2022-09-09T06:11:15;2.20;;;1.30;;
8423;SDS011;4249;49.072;9.770;2022-09-09T06:14:05;2.50;;;1.50;;
8423;SDS011;4249;49.072;9.770;2022-09-09T06:16:52;2.87;;;1.40;;
8423;SDS011;4249;49.072;9.770;2022-09-09T06:19:39;3.85;;;1.67;;
8423;SDS011;4249;49.072;9.770;2022-09-09T06:22:26;1.70;;;1.33;;
8423;SDS011;4249;49.072;9.770;2022-09-09T06:25:14;2.93;;;1.60;;
8423;SDS011;4249;49.072;9.770;2022-09-09T06:28:01;3.42;;;1.52;;
8423;SDS011;4249;49.072;9.770;2022-09-09T06:30:50;1.52;;;1.20;;
8423;SDS011;4249;49.072;9.770;2022-09-09T06:33:44;2.35;;;1.40;;
8423;SDS011;4249;49.072;9.770;2022-09-09T06:36:31;3.03;;;1.38;;
8423;SDS011;4249;49.072;9.770;2022-09-09T06:39:19;1.65;;;1.10;;
8423;SDS011;4249;49.072;9.770;2022-09-09T06:42:07;1.17;;;1.02;;
8423;SDS011;4249;49.072;9.770;2022-09-09T06:44:54;1.75;;;1.23;;
8423;SDS011;4249;49.072;9.770;2022-09-09T06:47:43;3.45;;;1.35;;
8423;SDS011;4249;49.072;9.770;2022-09-09T06:50:30;1.95;;;1.13;;
8423;SDS011;4249;49.072;9.770;2022-09-09T06:53:18;2.25;;;1.10;;
8423;SDS011;4249;49.072;9.770;2022-09-09T06:56:16;4.05;;;1.33;;
8423;SDS011;4249;49.072;9.770;2022-09-09T06:59:05;2.47;;;1.23;;
8423;SDS011;4249;49.072;9.770;2022-09-09T07:01:54;4.28;;;1.38;;
8423;SDS011;4249;49.072;9.770;2022-09-09T07:04:43;2.97;;;1.50;;
8423;SDS011;4249;49.072;9.770;2022-09-09T07:07:30;2.90;;;1.08;;
8423;SDS011;4249;49.072;9.770;2022-09-09T07:10:17;2.85;;;1.15;;
8423;SDS011;4249;49.072;9.770;2022-09-09T07:13:04;1.45;;;1.20;;
8423;SDS011;4249;49.072;9.770;2022-09-09T07:15:53;2.35;;;1.40;;
8423;SDS011;4249;49.072;9.770;2022-09-09T07:18:40;2.33;;;1.45;;
8423;SDS011;4249;49.072;9.770;2022-09-09T07:21:30;4.85;;;1.63;;
8423;SDS011;4249;49.072;9.770;2022-09-09T07:24:18;2.83;;;1.80;;
8423;SDS011;4249;49.072;9.770;2022-09-09T07:27:05;3.10;;;1.60;;
8423;SDS011;4249;49.072;9.770;2022-09-09T07:29:53;2.45;;;1.63;;
8423;SDS011;4249;49.072;9.770;2022-09-09T07:32:40;2.53;;;1.85;;
8423;SDS011;4249;49.072;9.770;2022-09-09T07:35:27;5.45;;;2.30;;
8423;SDS011;4249;49.072;9.770;2022-09-09T07:38:16;4.00;;;1.90;;
8423;SDS011;4249;49.072;9.770;2022-09-09T07:41:04;3.13;;;1.80;;
8423;SDS011;4249;49.072;9.770;2022-09-09T07:43:57;3.67;;;1.65;;
8423;SDS011;4249;49.072;9.770;2022-09-09T07:46:44;5.82;;;1.77;;
8423;SDS011;4249;49.072;9.770;2022-09-09T07:49:33;4.15;;;1.85;;
8423;SDS011;4249;49.072;9.770;2022-09-09T07:52:20;2.13;;;1.58;;
8423;SDS011;4249;49.072;9.770;2022-09-09T07:55:09;3.88;;;1.60;;
8423;SDS011;4249;49.072;9.770;2022-09-09T07:57:56;3.28;;;1.23;;
8423;SDS011;4249;49.072;9.770;2022-09-09T08:00:43;3.13;;;1.20;;
8423;SDS011;4249;49.072;9.770;2022-09-09T08:03:30;4.00;;;1.33;;
8423;SDS011;4249;49.072;9.770;2022-09-09T08:06:18;3.72;;;1.30;;
8423;SDS011;4249;49.072;9.770;2022-09-09T08:09:05;6.32;;;1.40;;
8423;SDS011;4249;49.072;9.770;2022-09-09T08:11:55;3.03;;;1.63;;
8423;SDS011;4249;49.072;9.770;2022-09-09T08:14:43;3.80;;;1.50;;
8423;SDS011;4249;49.072;9.770;2022-09-09T08:17:30;3.83;;;1.40;;
8423;SDS011;4249;49.072;9.770;2022-09-09T08:20:18;4.93;;;1.95;;
8423;SDS011;4249;49.072;9.770;2022-09-09T08:23:05;2.80;;;1.73;;
8423;SDS011;4249;49.072;9.770;2022-09-09T08:25:52;2.35;;;1.38;;
8423;SDS011;4249;49.072;9.770;2022-09-09T08:28:41;3.47;;;1.90;;
8423;SDS011;4249;49.072;9.770;2022-09-09T08:31:30;3.50;;;1.50;;
8423;SDS011;4249;49.072;9.770;2022-09-09T08:34:19;3.75;;;1.30;;
8423;SDS011;4249;49.072;9.770;2022-09-09T08:37:06;2.60;;;1.75;;
8423;SDS011;4249;49.072;9.770;2022-09-09T08:39:53;2.67;;;1.48;;
8423;SDS011;4249;49.072;9.770;2022-09-09T08:42:41;3.92;;;1.48;;
8423;SDS011;4249;49.072;9.770;2022-09-09T08:45:47;5.57;;;1.80;;
8423;SDS011;4249;49.072;9.770;2022-09-09T08:48:44;2.15;;;1.17;;
8423;SDS011;4249;49.072;9.770;2022-09-09T08:51:38;3.67;;;1.15;;
8423;SDS011;4249;49.072;9.770;2022-09-09T08:54:25;4.70;;;1.52;;
8423;SDS011;4249;49.072;9.770;2022-09-09T08:57:20;3.53;;;1.42;;
8423;SDS011;4249;49.072;9.770;2022-09-09T09:00:12;4.88;;;1.70;;
8423;SDS011;4249;49.072;9.770;2022-09-09T09:03:02;10.40;;;2.13;;
8423;SDS011;4249;49.072;9.770;2022-09-09T09:05:59;5.13;;;1.50;;
8423;SDS011;4249;49.072;9.770;2022-09-09T09:08:54;7.10;;;2.00;;
8423;SDS011;4249;49.072;9.770;2022-09-09T09:11:49;4.97;;;1.58;;
8423;SDS011;4249;49.072;9.770;2022-09-09T09:14:39;6.45;;;1.40;;
8423;SDS011;4249;49.072;9.770;2022-09-09T09:17:28;5.10;;;1.90;;
8423;SDS011;4249;49.072;9.770;2022-09-09T09:20:20;3.00;;;1.45;;
8423;SDS011;4249;49.072;9.770;2022-09-09T09:23:16;2.88;;;1.20;;
8423;SDS011;4249;49.072;9.770;2022-09-09T09:26:09;5.40;;;1.45;;
8423;SDS011;4249;49.072;9.770;2022-09-09T09:28:57;7.57;;;2.00;;
8423;SDS011;4249;49.072;9.770;2022-09-09T09:31:50;7.95;;;1.55;;
8423;SDS011;4249;49.072;9.770;2022-09-09T09:34:40;8.27;;;2.00;;
8423;SDS011;4249;49.072;9.770;2022-09-09T09:37:30;3.25;;;1.50;;
8423;SDS011;4249;49.072;9.770;2022-09-09T09:40:19;4.15;;;2.03;;
8423;SDS011;4249;49.072;9.770;2022-09-09T09:43:16;4.63;;;1.63;;
8423;SDS011;4249;49.072;9.770;2022-09-09T09:46:17;2.47;;;1.50;;
8423;SDS011;4249;49.072;9.770;2022-09-09T09:49:09;5.40;;;1.85;;
8423;SDS011;4249;49.072;9.770;2022-09-09T09:52:00;2.15;;;1.13;;
8423;SDS011;4249;49.072;9.770;2022-09-09T09:54:49;2.17;;;1.23;;
8423;SDS011;4249;49.072;9.770;2022-09-09T09:57:37;3.58;;;1.50;;
8423;SDS011;4249;49.072;9.770;2022-09-09T10:00:24;3.28;;;1.17;;
8423;SDS011;4249;49.072;9.770;2022-09-09T10:03:14;4.75;;;1.60;;
8423;SDS011;4249;49.072;9.770;2022-09-09T10:06:11;3.42;;;1.48;;
8423;SDS011;4249;49.072;9.770;2022-09-09T10:08:58;3.28;;;1.40;;
8423;SDS011;4249;49.072;9.770;2022-09-09T10:11:50;2.13;;;1.25;;
8423;SDS011;4249;49.072;9.770;2022-09-09T10:14:45;2.22;;;1.33;;
8423;SDS011;4249;49.072;9.770;2022-09-09T10:17:44;2.53;;;1.13;;
8423;SDS011;4249;49.072;9.770;2022-09-09T10:20:42;5.28;;;1.35;;
8423;SDS011;4249;49.072;9.770;2022-09-09T10:23:39;2.30;;;1.33;;
8423;SDS011;4249;49.072;9.770;2022-09-09T10:26:40;3.35;;;1.40;;
8423;SDS011;4249;49.072;9.770;2022-09-09T10:29:39;3.47;;;1.30;;
8423;SDS011;4249;49.072;9.770;2022-09-09T10:32:41;4.63;;;1.35;;
8423;SDS011;4249;49.072;9.770;2022-09-09T10:35:38;3.65;;;1.30;;
8423;SDS011;4249;49.072;9.770;2022-09-09T10:38:33;3.88;;;1.80;;
8423;SDS011;4249;49.072;9.770;2022-09-09T10:41:32;4.47;;;1.58;;
8423;SDS011;4249;49.072;9.770;2022-09-09T10:47:47;2.03;;;1.33;;
8423;SDS011;4249;49.072;9.770;2022-09-09T10:50:49;3.60;;;1.70;;
8423;SDS011;4249;49.072;9.770;2022-09-09T10:53:44;2.10;;;1.45;;
8423;SDS011;4249;49.072;9.770;2022-09-09T10:56:39;2.50;;;1.55;;
8423;SDS011;4249;49.072;9.770;2022-09-09T10:59:28;5.05;;;1.63;;
8423;SDS011;4249;49.072;9.770;2022-09-09T11:02:24;5.28;;;2.17;;
8423;SDS011;4249;49.072;9.770;2022-09-09T11:05:14;2.35;;;1.40;;
8423;SDS011;4249;49.072;9.770;2022-09-09T11:08:05;2.47;;;1.38;;
8423;SDS011;4249;49.072;9.770;2022-09-09T11:10:59;1.48;;;1.05;;
8423;SDS011;4249;49.072;9.770;2022-09-09T11:13:51;2.83;;;1.10;;
8423;SDS011;4249;49.072;9.770;2022-09-09T11:16:43;3.90;;;1.30;;
8423;SDS011;4249;49.072;9.770;2022-09-09T11:19:37;2.20;;;1.23;;
8423;SDS011;4249;49.072;9.770;2022-09-09T11:22:29;2.85;;;1.20;;
8423;SDS011;4249;49.072;9.770;2022-09-09T11:25:21;3.45;;;1.25;;
8423;SDS011;4249;49.072;9.770;2022-09-09T11:28:21;5.57;;;1.60;;
8423;SDS011;4249;49.072;9.770;2022-09-09T11:31:29;4.10;;;1.40;;
8423;SDS011;4249;49.072;9.770;2022-09-09T11:34:33;5.28;;;1.40;;
8423;SDS011;4249;49.072;9.770;2022-09-09T11:40:45;3.40;;;1.52;;
8423;SDS011;4249;49.072;9.770;2022-09-09T11:43:38;2.47;;;0.95;;
8423;SDS011;4249;49.072;9.770;2022-09-09T11:46:31;3.45;;;1.30;;
8423;SDS011;4249;49.072;9.770;2022-09-09T11:49:25;6.25;;;1.60;;
8423;SDS011;4249;49.072;9.770;2022-09-09T11:52:21;3.97;;;1.23;;
8423;SDS011;4249;49.072;9.770;2022-09-09T11:55:11;1.15;;;1.05;;
8423;SDS011;4249;49.072;9.770;2022-09-09T11:58:15;2.08;;;1.15;;
8423;SDS011;4249;49.072;9.770;2022-09-09T12:01:14;4.25;;;1.20;;
8423;SDS011;4249;49.072;9.770;2022-09-09T12:04:27;2.20;;;1.30;;
8423;SDS011;4249;49.072;9.770;2022-09-09T12:07:23;2.63;;;1.30;;
8423;SDS011;4249;49.072;9.770;2022-09-09T12:10:19;2.97;;;1.15;;
8423;SDS011;4249;49.072;9.770;2022-09-09T12:13:16;3.42;;;1.13;;
8423;SDS011;4249;49.072;9.770;2022-09-09T12:16:05;4.13;;;1.48;;
8423;SDS011;4249;49.072;9.770;2022-09-09T12:19:14;3.22;;;1.17;;
8423;SDS011;4249;49.072;9.770;2022-09-09T12:22:04;2.20;;;1.20;;
8423;SDS011;4249;49.072;9.770;2022-09-09T12:24:58;3.05;;;1.17;;
8423;SDS011;4249;49.072;9.770;2022-09-09T12:27:58;3.47;;;1.50;;
8423;SDS011;4249;49.072;9.770;2022-09-09T12:30:52;3.25;;;1.75;;
8423;SDS011;4249;49.072;9.770;2022-09-09T12:33:45;5.47;;;1.40;;
8423;SDS011;4249;49.072;9.770;2022-09-09T12:36:33;2.80;;;1.42;;
8423;SDS011;4249;49.072;9.770;2022-09-09T12:39:22;4.90;;;1.42;;
8423;SDS011;4249;49.072;9.770;2022-09-09T12:42:18;3.83;;;1.30;;
8423;SDS011;4249;49.072;9.770;2022-09-09T12:45:14;1.73;;;1.25;;
8423;SDS011;4249;49.072;9.770;2022-09-09T12:48:03;3.20;;;1.33;;
8423;SDS011;4249;49.072;9.770;2022-09-09T12:50:53;2.33;;;1.38;;
8423;SDS011;4249;49.072;9.770;2022-09-09T12:53:41;3.20;;;1.63;;
8423;SDS011;4249;49.072;9.770;2022-09-09T12:56:30;4.93;;;1.50;;
8423;SDS011;4249;49.072;9.770;2022-09-09T12:59:23;3.42;;;1.30;;
8423;SDS011;4249;49.072;9.770;2022-09-09T13:02:19;3.55;;;1.45;;
8423;SDS011;4249;49.072;9.770;2022-09-09T13:05:12;3.08;;;1.33;;
8423;SDS011;4249;49.072;9.770;2022-09-09T13:08:03;5.25;;;1.73;;
8423;SDS011;4249;49.072;9.770;2022-09-09T13:10:52;5.35;;;1.70;;
8423;SDS011;4249;49.072;9.770;2022-09-09T13:13:43;6.75;;;1.67;;
8423;SDS011;4249;49.072;9.770;2022-09-09T13:16:39;11.18;;;1.80;;
8423;SDS011;4249;49.072;9.770;2022-09-09T13:19:26;2.15;;;1.10;;
8423;SDS011;4249;49.072;9.770;2022-09-09T13:22:20;2.42;;;1.15;;
8423;SDS011;4249;49.072;9.770;2022-09-09T13:25:17;3.17;;;1.50;;
8423;SDS011;4249;49.072;9.770;2022-09-09T13:28:18;3.38;;;1.30;;
8423;SDS011;4249;49.072;9.770;2022-09-09T13:31:19;2.20;;;1.20;;
8423;SDS011;4249;49.072;9.770;2022-09-09T13:34:12;2.40;;;1.35;;
8423;SDS011;4249;49.072;9.770;2022-09-09T13:37:01;5.80;;;1.15;;
8423;SDS011;4249;49.072;9.770;2022-09-09T13:39:51;2.60;;;1.08;;
8423;SDS011;4249;49.072;9.770;2022-09-09T13:42:40;1.33;;;0.88;;
8423;SDS011;4249;49.072;9.770;2022-09-09T13:45:28;4.28;;;1.13;;
8423;SDS011;4249;49.072;9.770;2022-09-09T13:48:17;0.82;;;0.70;;
8423;SDS011;4249;49.072;9.770;2022-09-09T13:54:16;2.10;;;1.00;;
8423;SDS011;4249;49.072;9.770;2022-09-09T13:57:05;3.03;;;1.10;;
8423;SDS011;4249;49.072;9.770;2022-09-09T13:59:52;2.00;;;1.25;;
8423;SDS011;4249;49.072;9.770;2022-09-09T14:02:41;1.85;;;1.00;;
8423;SDS011;4249;49.072;9.770;2022-09-09T14:05:29;1.52;;;1.10;;
8423;SDS011;4249;49.072;9.770;2022-09-09T14:08:24;2.58;;;1.08;;
8423;SDS011;4249;49.072;9.770;2022-09-09T14:11:14;1.10;;;0.80;;
8423;SDS011;4249;49.072;9.770;2022-09-09T14:14:01;2.30;;;0.82;;
8423;SDS011;4249;49.072;9.770;2022-09-09T14:16:48;1.42;;;1.00;;
8423;SDS011;4249;49.072;9.770;2022-09-09T14:19:35;0.93;;;0.70;;
8423;SDS011;4249;49.072;9.770;2022-09-09T14:22:22;1.70;;;1.20;;
8423;SDS011;4249;49.072;9.770;2022-09-09T14:25:12;3.65;;;0.98;;
8423;SDS011;4249;49.072;9.770;2022-09-09T14:27:59;2.38;;;1.00;;
8423;SDS011;4249;49.072;9.770;2022-09-09T14:30:47;2.92;;;1.38;;
8423;SDS011;4249;49.072;9.770;2022-09-09T14:33:35;3.85;;;1.00;;
8423;SDS011;4249;49.072;9.770;2022-09-09T14:36:22;2.03;;;0.82;;
8423;SDS011;4249;49.072;9.770;2022-09-09T14:39:09;3.22;;;0.68;;
8423;SDS011;4249;49.072;9.770;2022-09-09T14:41:58;3.70;;;1.20;;
8423;SDS011;4249;49.072;9.770;2022-09-09T14:44:46;4.03;;;2.00;;
8423;SDS011;4249;49.072;9.770;2022-09-09T14:47:33;2.40;;;1.05;;
8423;SDS011;4249;49.072;9.770;2022-09-09T14:50:21;3.00;;;1.02;;
8423;SDS011;4249;49.072;9.770;2022-09-09T14:53:09;1.70;;;0.65;;
8423;SDS011;4249;49.072;9.770;2022-09-09T14:56:02;1.63;;;0.85;;
8423;SDS011;4249;49.072;9.770;2022-09-09T14:58:52;1.15;;;0.80;;
8423;SDS011;4249;49.072;9.770;2022-09-09T15:01:40;2.63;;;0.98;;
8423;SDS011;4249;49.072;9.770;2022-09-09T15:04:27;3.10;;;0.80;;
8423;SDS011;4249;49.072;9.770;2022-09-09T15:07:14;1.15;;;0.90;;
8423;SDS011;4249;49.072;9.770;2022-09-09T15:10:02;2.20;;;0.90;;
8423;SDS011;4249;49.072;9.770;2022-09-09T15:12:50;2.38;;;1.20;;
8423;SDS011;4249;49.072;9.770;2022-09-09T15:15:38;4.00;;;1.08;;
8423;SDS011;4249;49.072;9.770;2022-09-09T15:18:26;2.33;;;1.02;;
8423;SDS011;4249;49.072;9.770;2022-09-09T15:21:14;3.88;;;0.90;;
8423;SDS011;4249;49.072;9.770;2022-09-09T15:24:04;2.63;;;1.08;;
8423;SDS011;4249;49.072;9.770;2022-09-09T15:26:53;3.47;;;1.15;;
8423;SDS011;4249;49.072;9.770;2022-09-09T15:29:41;3.20;;;1.13;;
8423;SDS011;4249;49.072;9.770;2022-09-09T15:32:30;2.90;;;1.00;;
8423;SDS011;4249;49.072;9.770;2022-09-09T15:35:18;2.35;;;0.95;;
8423;SDS011;4249;49.072;9.770;2022-09-09T15:38:05;2.05;;;0.90;;
8423;SDS011;4249;49.072;9.770;2022-09-09T15:40:55;0.70;;;0.63;;
8423;SDS011;4249;49.072;9.770;2022-09-09T15:43:43;1.83;;;0.82;;
8423;SDS011;4249;49.072;9.770;2022-09-09T15:46:32;2.45;;;0.90;;
8423;SDS011;4249;49.072;9.770;2022-09-09T15:49:23;0.90;;;0.70;;
8423;SDS011;4249;49.072;9.770;2022-09-09T15:52:11;1.45;;;0.85;;
8423;SDS011;4249;49.072;9.770;2022-09-09T15:54:58;1.33;;;0.55;;
8423;SDS011;4249;49.072;9.770;2022-09-09T15:57:46;1.85;;;0.73;;
8423;SDS011;4249;49.072;9.770;2022-09-09T16:00:33;1.52;;;1.10;;
8423;SDS011;4249;49.072;9.770;2022-09-09T16:03:20;0.82;;;0.82;;
8423;SDS011;4249;49.072;9.770;2022-09-09T16:06:09;1.10;;;1.00;;
8423;SDS011;4249;49.072;9.770;2022-09-09T16:08:57;2.13;;;0.70;;
8423;SDS011;4249;49.072;9.770;2022-09-09T16:11:46;1.40;;;0.93;;
8423;SDS011;4249;49.072;9.770;2022-09-09T16:14:33;2.75;;;0.90;;
8423;SDS011;4249;49.072;9.770;2022-09-09T16:17:21;3.58;;;1.27;;
8423;SDS011;4249;49.072;9.770;2022-09-09T16:20:08;7.13;;;1.70;;
8423;SDS011;4249;49.072;9.770;2022-09-09T16:22:58;10.63;;;2.58;;
8423;SDS011;4249;49.072;9.770;2022-09-09T16:25:52;5.65;;;1.90;;
8423;SDS011;4249;49.072;9.770;2022-09-09T16:28:40;3.33;;;1.45;;
8423;SDS011;4249;49.072;9.770;2022-09-09T16:31:28;3.33;;;1.48;;
8423;SDS011;4249;49.072;9.770;2022-09-09T16:34:16;5.47;;;1.48;;
8423;SDS011;4249;49.072;9.770;2022-09-09T16:37:04;4.82;;;1.52;;
8423;SDS011;4249;49.072;9.770;2022-09-09T16:39:52;2.30;;;1.25;;
8423;SDS011;4249;49.072;9.770;2022-09-09T16:42:40;3.95;;;1.52;;
8423;SDS011;4249;49.072;9.770;2022-09-09T16:45:27;2.28;;;1.52;;
8423;SDS011;4249;49.072;9.770;2022-09-09T16:48:14;3.88;;;1.48;;
8423;SDS011;4249;49.072;9.770;2022-09-09T16:51:02;2.25;;;1.67;;
8423;SDS011;4249;49.072;9.770;2022-09-09T16:53:50;2.42;;;1.60;;
8423;SDS011;4249;49.072;9.770;2022-09-09T16:56:40;2.58;;;1.40;;
8423;SDS011;4249;49.072;9.770;2022-09-09T16:59:29;2.92;;;1.60;;
8423;SDS011;4249;49.072;9.770;2022-09-09T17:02:17;2.28;;;1.42;;
8423;SDS011;4249;49.072;9.770;2022-09-09T17:05:04;2.72;;;1.33;;
8423;SDS011;4249;49.072;9.770;2022-09-09T17:07:52;4.00;;;1.38;;
8423;SDS011;4249;49.072;9.770;2022-09-09T17:10:41;1.42;;;1.17;;
8423;SDS011;4249;49.072;9.770;2022-09-09T17:13:29;2.80;;;1.25;;
8423;SDS011;4249;49.072;9.770;2022-09-09T17:16:18;2.17;;;1.10;;
8423;SDS011;4249;49.072;9.770;2022-09-09T17:19:07;3.92;;;2.38;;
8423;SDS011;4249;49.072;9.770;2022-09-09T17:21:55;3.08;;;1.70;;
8423;SDS011;4249;49.072;9.770;2022-09-09T17:24:44;1.60;;;1.20;;
8423;SDS011;4249;49.072;9.770;2022-09-09T17:27:31;2.20;;;1.50;;
8423;SDS011;4249;49.072;9.770;2022-09-09T17:30:20;4.05;;;1.27;;
8423;SDS011;4249;49.072;9.770;2022-09-09T17:33:08;1.58;;;1.42;;
8423;SDS011;4249;49.072;9.770;2022-09-09T17:35:55;1.95;;;1.20;;
8423;SDS011;4249;49.072;9.770;2022-09-09T17:38:42;1.67;;;1.17;;
8423;SDS011;4249;49.072;9.770;2022-09-09T17:41:35;1.30;;;1.20;;
8423;SDS011;4249;49.072;9.770;2022-09-09T17:44:23;3.38;;;1.73;;
8423;SDS011;4249;49.072;9.770;2022-09-09T17:47:13;1.67;;;1.40;;
8423;SDS011;4249;49.072;9.770;2022-09-09T17:50:00;2.83;;;1.60;;